»·PEaware :: QXE2205 KSEA-KPDX

QXE2205 :: KSEA-KPDX

FLIGHT INFORMATION

Flight Status: Arrived
Operator:
Horizon Air
More flights by this operator :: More flights under this callsign
Pilot: Adlai G. (28854)
Aircraft: DEHAVILLAND DASH 8 400
(DH8D)
More flights by this aircraft type
Origin: KSEA Seattle-Tacoma Intl
United States
Destination: KPDX Portland Intl
United States
More flights between these airports :: More routes between these airports
Route: SEA7 BUWZO KRATR2
File this flight plan on PilotEdge
Remarks:
Altitude:
(Current/Filed)
17,000ft
Speed:
(Current/Filed)
362kts
Departed: 12-Feb-21 11:58 AM
Arrived: 12-Feb-21 12:33 PM
Distance/Time
Traveled:
112nm/0:35
Distance/Time
To Go:
Arrived

Flight Plot

Page will automatically refresh every two minutes.

Flight plan parsing failed; only flown route is shown


Map Options




Map Legend


Flown Route
Filed Route
Departure Airport
Arrival Airport
Navaid (VOR, NDB)
Fix

Horizontal Profiles

Position Reports

Time Latitude Longitude Heading Altitude Ground
Speed
12-Feb-21 11:24 47.445388 -122.304612 50 440ft 0kts
12-Feb-21 11:25 47.445388 -122.304612 50 440ft 0kts
12-Feb-21 11:26 47.445388 -122.304612 50 440ft 0kts
12-Feb-21 11:27 47.445388 -122.304612 50 440ft 0kts
12-Feb-21 11:28 47.445388 -122.304612 50 440ft 0kts
12-Feb-21 11:29 47.445388 -122.304612 50 440ft 0kts
12-Feb-21 11:30 47.445388 -122.304612 50 440ft 0kts
12-Feb-21 11:31 47.445388 -122.304612 50 440ft 0kts
12-Feb-21 11:32 47.445388 -122.304612 50 440ft 0kts
12-Feb-21 11:33 47.445388 -122.304612 50 440ft 0kts
12-Feb-21 11:34 47.445388 -122.304612 50 440ft 0kts
12-Feb-21 11:35 47.445388 -122.304612 50 440ft 0kts
12-Feb-21 11:36 47.445388 -122.304612 50 440ft 0kts
12-Feb-21 11:37 47.445388 -122.304612 50 440ft 0kts
12-Feb-21 11:38 47.445388 -122.304612 50 440ft 0kts
12-Feb-21 11:39 47.445388 -122.304612 50 440ft 0kts
12-Feb-21 11:40 47.445388 -122.304612 50 440ft 0kts
12-Feb-21 11:41 47.445388 -122.304612 50 440ft 0kts
12-Feb-21 11:42 47.445388 -122.304612 50 440ft 0kts
12-Feb-21 11:43 47.445388 -122.304612 50 440ft 0kts
12-Feb-21 11:44 47.445388 -122.304612 50 440ft 0kts
12-Feb-21 11:45 47.445388 -122.304612 50 440ft 0kts
12-Feb-21 11:46 47.445388 -122.304612 50 440ft 0kts
12-Feb-21 11:47 47.445388 -122.304612 50 440ft 0kts
12-Feb-21 11:48 47.445040 -122.305410 72 440ft 2kts
12-Feb-21 11:49 47.444997 -122.305912 89 440ft 0kts
12-Feb-21 11:51 47.444997 -122.305918 89 440ft 0kts
12-Feb-21 11:52 47.444997 -122.305918 89 440ft 0kts
12-Feb-21 11:53 47.444923 -122.305731 143 440ft 3kts
12-Feb-21 11:54 47.442220 -122.306332 181 440ft 14kts
12-Feb-21 11:55 47.437306 -122.306388 180 440ft 20kts
12-Feb-21 11:56 47.432347 -122.305783 191 440ft 11kts
12-Feb-21 11:57 47.432128 -122.308009 0 440ft 24kts
12-Feb-21 11:58 47.463815 -122.307767 3 2061ft 131kts
12-Feb-21 11:59 47.512141 -122.313205 351 3028ft 223kts
12-Feb-21 12:00 47.573748 -122.321485 339 5739ft 206kts
12-Feb-21 12:01 47.573336 -122.388594 205 8707ft 208kts
12-Feb-21 12:02 47.508277 -122.386675 172 10466ft 262kts
12-Feb-21 12:03 47.432375 -122.375449 173 12110ft 282kts
12-Feb-21 12:04 47.353990 -122.363263 176 13887ft 281kts
12-Feb-21 12:05 47.274972 -122.350114 179 15487ft 289kts
12-Feb-21 12:05 47.207177 -122.340765 181 16592ft 297kts
12-Feb-21 12:07 47.105274 -122.327670 182 16992ft 335kts
12-Feb-21 12:07 47.025038 -122.318896 181 16988ft 358kts
12-Feb-21 12:08 46.923988 -122.307881 186 16985ft 366kts
12-Feb-21 12:10 46.804147 -122.309943 186 16982ft 372kts
12-Feb-21 12:11 46.700798 -122.309625 186 16983ft 374kts
12-Feb-21 12:11 46.614346 -122.309429 187 16982ft 368kts
12-Feb-21 12:12 46.512930 -122.309663 187 17000ft 362kts
12-Feb-21 12:13 46.412709 -122.309886 186 15858ft 358kts
12-Feb-21 12:14 46.316358 -122.310074 185 14200ft 337kts
12-Feb-21 12:15 46.226815 -122.325090 206 12608ft 315kts
12-Feb-21 12:16 46.148979 -122.369888 205 11263ft 300kts
12-Feb-21 12:17 46.069876 -122.413937 204 10067ft 302kts
12-Feb-21 12:18 45.998020 -122.454596 198 8673ft 254kts
12-Feb-21 12:19 45.932657 -122.489988 206 7047ft 241kts
12-Feb-21 12:20 45.883622 -122.548438 216 6393ft 228kts
12-Feb-21 12:21 45.835110 -122.609709 216 5563ft 232kts
12-Feb-21 12:22 45.787527 -122.669428 216 5012ft 222kts
12-Feb-21 12:23 45.755586 -122.743424 271 5013ft 237kts
12-Feb-21 12:24 45.773471 -122.834499 268 4970ft 228kts
12-Feb-21 12:25 45.734390 -122.891690 193 3993ft 196kts
12-Feb-21 12:26 45.693953 -122.860682 123 3604ft 158kts
12-Feb-21 12:27 45.669592 -122.808280 119 2918ft 149kts
12-Feb-21 12:28 45.648499 -122.757250 118 2113ft 138kts
12-Feb-21 12:29 45.631114 -122.713582 116 1487ft 123kts
12-Feb-21 12:30 45.614484 -122.670832 117 824ft 119kts
12-Feb-21 12:31 45.598107 -122.629004 118 188ft 118kts
12-Feb-21 12:32 45.589003 -122.605676 107 37ft 8kts
12-Feb-21 12:33 45.590269 -122.603111 114 37ft 10kts
12-Feb-21 12:34 45.591294 -122.600306 64 37ft 10kts
12-Feb-21 12:35 45.590833 -122.598489 210 37ft 3kts
12-Feb-21 12:36 45.590592 -122.598687 209 37ft 0kts
12-Feb-21 12:37 45.590592 -122.598687 209 37ft 0kts
12-Feb-21 12:38 45.590592 -122.598687 209 37ft 0kts
12-Feb-21 12:39 45.590592 -122.598687 209 37ft 0kts
12-Feb-21 12:40 45.590592 -122.598687 209 37ft 0kts
12-Feb-21 12:41 45.590592 -122.598687 209 37ft 0kts
12-Feb-21 12:42 45.590592 -122.598687 209 37ft 0kts
12-Feb-21 12:43 45.590592 -122.598687 209 37ft 0kts
12-Feb-21 12:44 45.590592 -122.598687 209 37ft 0kts

Navigation Log

Ident Type
Flight plan parsing failed, navigation log unavailable